aviador You're here:

LFLX Decoded Metar

CHATEAUROUX in FRANCE
Report Time2018-06-17 21:30:00
UTC Time2018-06-17 21:57:40
Flight Rules vfr VFR
Wind250° at 05 kt
W.Decomp.*RWY 21: 3.8 kt HW 3.2 kt RCW
W.Rank250° ranks 1
Current wind is below 250° avg. (8.9)
Visibility9999 m
Phenomena:N/A
Clouds:N/A
Expected CloudBase > 800 ft AGL from Temp-Dew spread
CeilingNone
Temp14°C (ISA 0)
Dew Point12°C (88% RH)
AAT12.8°C
QNH1023 hPa
Density Alt371 ft
Elevation515 ft
Report Wrong Elevation
Raw Report
METAR LFLX 172130Z AUTO 25005KT CAVOK 14/12 Q1023 NOSIG=

Extra information for LFLX:More info

Metar Taf Metar & Taf Last 4 Metars F.Rules Stats Wind Profile Meteogram Temp Stats Airport Information Weather charts Add Link Nearby VenuesMetar ALERT Operation Metar Decoded Social comments